Mata Roma, Brazil
Current Conditions -  °F | °C
As of 6:00 PM on Friday 19 Dec 2014 (Local Time) from SBTE Reporting Station
Scattered Clouds Scattered Clouds  
Wind Chill: 88°   Ceiling: Unl
Heat Index: 91°   Visibility: 6mi
Dew Point: 68°   Wind: 3mph
Humidity: 52%   Direction: 200°SSW
Pressure: 29.77"   Gusts: NA
Location:  3.63°S, 43.11°W
Report Text: SBTE 192100Z 20003KT 9999 FEW020 SCT100 31/20 Q1008
Loading
Personal Weather Stations






























Interactive Weather Map New forecast layout! Learn more

10-Day Weather Forecast

Advertisements
Track Severe Weather on mobile